createdAt,value
2018-02-10T00:01:09.480Z,-0.30
2018-02-10T00:03:35.881Z,-0.30
2018-02-10T00:06:02.296Z,-0.30
2018-02-10T00:08:28.692Z,-0.30
2018-02-10T00:10:55.125Z,-0.40
2018-02-10T00:13:24.658Z,-0.40
2018-02-10T00:15:51.088Z,-0.40
2018-02-10T00:18:18.241Z,-0.40
2018-02-10T00:20:45.438Z,-0.30
2018-02-10T00:23:11.921Z,-0.40
2018-02-10T00:25:38.349Z,-0.30
2018-02-10T00:28:04.769Z,-0.30
2018-02-10T00:30:31.225Z,-0.40
2018-02-10T00:32:57.715Z,-0.40
2018-02-10T00:35:24.140Z,-0.40
2018-02-10T00:37:51.713Z,-0.40
2018-02-10T00:40:22.304Z,-0.30
2018-02-10T00:42:48.720Z,-0.40
2018-02-10T00:45:15.184Z,-0.40
2018-02-10T00:47:41.622Z,-0.30
2018-02-10T00:50:08.068Z,-0.30
2018-02-10T00:52:37.626Z,-0.30
2018-02-10T00:55:04.046Z,-0.40
2018-02-10T00:57:31.199Z,-0.40
2018-02-10T00:59:58.401Z,-0.30
2018-02-10T01:02:24.833Z,-0.30
2018-02-10T01:04:51.308Z,-0.30
2018-02-10T01:07:18.501Z,-0.30
2018-02-10T01:09:45.020Z,-0.40
2018-02-10T01:12:11.455Z,-0.30
2018-02-10T01:14:37.915Z,-0.30
2018-02-10T01:19:36.528Z,-0.40
2018-02-10T01:22:02.992Z,-0.30
2018-02-10T01:24:29.470Z,-0.40
2018-02-10T01:26:55.923Z,-0.40
2018-02-10T01:29:22.364Z,-0.40
2018-02-10T01:31:48.804Z,-0.30
2018-02-10T01:34:15.265Z,-0.30
2018-02-10T01:36:41.710Z,-0.30
2018-02-10T01:39:08.861Z,-0.30
2018-02-10T01:41:35.280Z,-0.40
2018-02-10T01:44:01.760Z,-0.30
2018-02-10T01:46:28.168Z,-0.30
2018-02-10T01:48:54.677Z,-0.30
2018-02-10T01:51:21.133Z,-0.30
2018-02-10T01:53:47.555Z,-0.30
2018-02-10T01:56:14.033Z,-0.30
2018-02-10T01:58:40.458Z,-0.30
2018-02-10T02:01:06.912Z,-0.30
2018-02-10T02:03:33.335Z,-0.30
2018-02-10T02:05:59.822Z,-0.40
2018-02-10T02:08:26.274Z,-0.40
2018-02-10T02:10:53.499Z,-0.40
2018-02-10T02:13:19.953Z,-0.40
2018-02-10T02:18:18.737Z,-0.40
2018-02-10T02:20:45.196Z,-0.40
2018-02-10T02:23:11.620Z,-0.40
2018-02-10T02:25:38.832Z,-0.40
2018-02-10T02:28:05.246Z,-0.40
2018-02-10T02:30:32.439Z,-0.40
2018-02-10T02:32:58.938Z,-0.40
2018-02-10T02:35:26.117Z,-0.40
2018-02-10T02:37:52.632Z,-0.40
2018-02-10T02:40:19.060Z,-0.40
2018-02-10T02:42:45.509Z,-0.40
2018-02-10T02:45:12.647Z,-0.40
2018-02-10T02:47:39.047Z,-0.40
2018-02-10T02:50:06.243Z,-0.40
2018-02-10T02:52:32.676Z,-0.40
2018-02-10T02:54:59.079Z,-0.40
2018-02-10T02:57:25.466Z,-0.40
2018-02-10T02:59:51.906Z,-0.40
2018-02-10T03:02:18.410Z,-0.30
2018-02-10T03:04:44.843Z,-0.30
2018-02-10T03:07:12.003Z,-0.30
2018-02-10T03:09:38.383Z,-0.30
2018-02-10T03:12:04.856Z,-0.30
2018-02-10T03:14:31.305Z,-0.30
2018-02-10T03:16:57.746Z,-0.20
2018-02-10T03:19:24.160Z,-0.30
2018-02-10T03:21:51.319Z,-0.20
2018-02-10T03:24:17.759Z,-0.20
2018-02-10T03:26:44.160Z,-0.30
2018-02-10T03:29:10.542Z,-0.30
2018-02-10T03:31:36.975Z,-0.30
2018-02-10T03:34:03.393Z,-0.30
2018-02-10T03:36:29.864Z,-0.30
2018-02-10T03:38:56.432Z,-0.30
2018-02-10T03:41:23.628Z,-0.40
2018-02-10T03:43:50.047Z,-0.40
2018-02-10T03:46:16.503Z,-0.40
2018-02-10T03:48:42.926Z,-0.40
2018-02-10T03:51:09.332Z,-0.40
2018-02-10T03:53:38.664Z,-0.40
2018-02-10T03:56:05.177Z,-0.40
2018-02-10T03:58:31.631Z,-0.40
2018-02-10T04:00:58.064Z,-0.40
2018-02-10T04:03:24.510Z,-0.40
2018-02-10T04:05:50.959Z,-0.40
2018-02-10T04:08:17.349Z,-0.40
2018-02-10T04:10:43.780Z,-0.40
2018-02-10T04:13:10.184Z,-0.40
2018-02-10T04:15:37.349Z,-0.40
2018-02-10T04:18:04.489Z,-0.40
2018-02-10T04:20:30.955Z,-0.40
2018-02-10T04:22:57.360Z,-0.40
2018-02-10T04:25:23.870Z,-0.40
2018-02-10T04:27:54.067Z,-0.40
2018-02-10T04:30:20.491Z,-0.40
2018-02-10T04:32:46.904Z,-0.40
2018-02-10T04:35:14.171Z,-0.40
2018-02-10T04:37:40.540Z,-0.40
2018-02-10T04:40:06.964Z,-0.40
2018-02-10T04:42:33.359Z,-0.40
2018-02-10T04:45:00.511Z,-0.40
2018-02-10T04:47:31.386Z,-0.40
2018-02-10T04:49:57.759Z,-0.40
2018-02-10T04:52:24.199Z,-0.40
2018-02-10T04:54:50.589Z,-0.40
2018-02-10T04:57:17.002Z,-0.40
2018-02-10T04:59:43.392Z,-0.50
2018-02-10T05:02:09.805Z,-0.50
2018-02-10T05:04:36.227Z,-0.50
2018-02-10T05:07:02.705Z,-0.50
2018-02-10T05:09:29.106Z,-0.50
2018-02-10T05:11:55.564Z,-0.50
2018-02-10T05:14:22.716Z,-0.50
2018-02-10T05:16:49.878Z,-0.50
2018-02-10T05:19:16.258Z,-0.50
2018-02-10T05:21:42.712Z,-0.50
2018-02-10T05:24:09.095Z,-0.50
2018-02-10T05:26:36.251Z,-0.50
2018-02-10T05:29:03.403Z,-0.50
2018-02-10T05:31:29.840Z,-0.50
2018-02-10T05:33:56.958Z,-0.50
2018-02-10T05:36:23.358Z,-0.50
2018-02-10T05:38:49.730Z,-0.50
2018-02-10T05:41:16.153Z,-0.50
2018-02-10T05:43:42.551Z,-0.50
2018-02-10T05:46:08.941Z,-0.40
2018-02-10T05:48:36.113Z,-0.40
2018-02-10T05:51:02.502Z,-0.40
2018-02-10T05:53:33.925Z,-0.50
2018-02-10T05:56:00.338Z,-0.50
2018-02-10T05:58:26.759Z,-0.50
2018-02-10T06:00:53.896Z,-0.50
2018-02-10T06:03:21.029Z,-0.50
2018-02-10T06:05:47.407Z,-0.50
2018-02-10T06:08:13.888Z,-0.50
2018-02-10T06:10:41.064Z,-0.50
2018-02-10T06:13:07.515Z,-0.50
2018-02-10T06:15:34.031Z,-0.50
2018-02-10T06:18:01.230Z,-0.50
2018-02-10T06:20:27.635Z,-0.50
2018-02-10T06:22:57.130Z,-0.50
2018-02-10T06:25:24.283Z,-0.50
2018-02-10T06:27:50.671Z,-0.50
2018-02-10T06:30:19.125Z,-0.50
2018-02-10T06:32:45.591Z,-0.50
2018-02-10T06:35:11.999Z,-0.40
2018-02-10T06:37:38.423Z,-0.50
2018-02-10T06:40:05.291Z,-0.50
2018-02-10T06:42:32.475Z,-0.60
2018-02-10T06:44:59.611Z,-0.60
2018-02-10T06:47:26.027Z,-0.60
2018-02-10T06:49:52.439Z,-0.60
2018-02-10T06:52:18.936Z,-0.60
2018-02-10T06:54:45.313Z,-0.60
2018-02-10T06:57:11.736Z,-0.60
2018-02-10T06:59:38.146Z,-0.50
2018-02-10T07:02:04.552Z,-0.50
2018-02-10T07:04:30.996Z,-0.50
2018-02-10T07:06:57.411Z,-0.60
2018-02-10T07:09:24.297Z,-0.60
2018-02-10T07:11:50.699Z,-0.60
2018-02-10T07:14:17.160Z,-0.60
2018-02-10T07:16:43.620Z,-0.60
2018-02-10T07:19:10.073Z,-0.50
2018-02-10T07:21:36.475Z,-0.50
2018-02-10T07:24:02.965Z,-0.50
2018-02-10T07:26:29.370Z,-0.50
2018-02-10T07:28:56.577Z,-0.50
2018-02-10T07:31:23.741Z,-0.50
2018-02-10T07:33:50.167Z,-0.50
2018-02-10T07:36:17.298Z,-0.50
2018-02-10T07:38:43.700Z,-0.40
2018-02-10T07:41:10.138Z,-0.40
2018-02-10T07:43:36.588Z,-0.40
2018-02-10T07:46:03.805Z,-0.40
2018-02-10T07:48:30.254Z,-0.40
2018-02-10T07:50:56.677Z,-0.40
2018-02-10T07:53:23.142Z,-0.40
2018-02-10T07:55:49.537Z,-0.30
2018-02-10T07:58:16.008Z,-0.30
2018-02-10T08:00:42.408Z,-0.30
2018-02-10T08:03:08.867Z,-0.30
2018-02-10T08:05:35.240Z,-0.20
2018-02-10T08:08:02.407Z,-0.20
2018-02-10T08:10:28.879Z,-0.20
2018-02-10T08:12:55.281Z,-0.20
2018-02-10T08:15:21.659Z,-0.20
2018-02-10T08:17:48.090Z,-0.20
2018-02-10T08:20:14.503Z,-0.10
2018-02-10T08:22:40.938Z,-0.10
2018-02-10T08:25:07.331Z,-0.10
2018-02-10T08:27:34.481Z,0.00
2018-02-10T08:30:02.093Z,0.10
2018-02-10T08:32:28.639Z,0.10
2018-02-10T08:34:56.065Z,0.10
2018-02-10T08:37:26.520Z,0.10
2018-02-10T08:39:54.435Z,0.20
2018-02-10T08:42:20.883Z,0.20
2018-02-10T08:44:47.343Z,0.20
2018-02-10T08:47:14.147Z,0.20
2018-02-10T08:49:41.554Z,0.30
2018-02-10T08:52:08.028Z,0.20
2018-02-10T08:54:34.619Z,0.30
2018-02-10T08:57:01.300Z,0.30
2018-02-10T08:59:28.826Z,0.30
2018-02-10T09:01:55.671Z,0.30
2018-02-10T09:04:22.392Z,0.40
2018-02-10T09:06:49.095Z,0.40
2018-02-10T09:09:16.616Z,0.40
2018-02-10T09:11:43.454Z,0.40
2018-02-10T09:14:09.979Z,0.40
2018-02-10T09:16:36.386Z,0.50
2018-02-10T09:19:02.967Z,0.50
2018-02-10T09:21:29.378Z,0.50
2018-02-10T09:24:04.892Z,0.50
2018-02-10T09:26:31.357Z,0.50
2018-02-10T09:28:58.823Z,0.60
2018-02-10T09:31:25.224Z,0.60
2018-02-10T09:33:52.722Z,0.70
2018-02-10T09:36:28.061Z,0.70
2018-02-10T09:38:58.478Z,0.70
2018-02-10T09:41:35.936Z,0.70
2018-02-10T09:44:03.100Z,0.80
2018-02-10T09:46:29.596Z,0.80
2018-02-10T09:48:56.094Z,0.90
2018-02-10T09:51:35.781Z,0.90
2018-02-10T09:54:02.250Z,0.90
2018-02-10T09:56:34.600Z,1.00
2018-02-10T09:59:08.848Z,1.10
2018-02-10T10:01:35.359Z,1.10
2018-02-10T10:04:01.852Z,1.30
2018-02-10T10:06:36.200Z,2.10
2018-02-10T10:09:02.651Z,2.10
2018-02-10T10:11:38.068Z,2.60
2018-02-10T10:14:04.574Z,2.70
2018-02-10T10:16:31.003Z,2.60
2018-02-10T10:18:57.423Z,2.50
2018-02-10T10:21:23.951Z,2.40
2018-02-10T10:23:50.463Z,2.30
2018-02-10T10:26:17.645Z,2.50
2018-02-10T10:28:44.252Z,2.50
2018-02-10T10:31:10.678Z,2.70
2018-02-10T10:33:38.830Z,2.70
2018-02-10T10:36:15.448Z,2.70
2018-02-10T10:38:51.299Z,2.60
2018-02-10T10:41:18.439Z,2.50
2018-02-10T10:43:50.324Z,2.50
2018-02-10T10:46:26.186Z,2.50
2018-02-10T10:48:54.962Z,2.50
2018-02-10T10:51:22.265Z,2.60
2018-02-10T10:53:48.768Z,2.50
2018-02-10T10:56:15.184Z,2.60
2018-02-10T10:58:41.620Z,2.50
2018-02-10T11:01:11.792Z,2.50
2018-02-10T11:03:38.244Z,2.50
2018-02-10T11:06:06.154Z,2.40
2018-02-10T11:08:37.216Z,2.40
2018-02-10T11:11:07.673Z,2.50
2018-02-10T11:13:38.090Z,2.50
2018-02-10T11:16:04.909Z,2.60
2018-02-10T11:18:35.363Z,2.70
2018-02-10T11:21:01.798Z,2.80
2018-02-10T11:23:28.215Z,2.80
2018-02-10T11:25:54.644Z,2.80
2018-02-10T11:28:21.129Z,2.80
2018-02-10T11:30:49.531Z,2.80
2018-02-10T11:33:15.971Z,2.70
2018-02-10T11:35:42.377Z,2.60
2018-02-10T11:38:15.954Z,2.60
2018-02-10T11:41:04.911Z,2.60
2018-02-10T11:43:37.327Z,2.80
2018-02-10T11:46:04.647Z,3.20
2018-02-10T11:48:40.142Z,3.20
2018-02-10T11:51:26.293Z,3.30
2018-02-10T11:53:57.363Z,3.40
2018-02-10T11:56:30.518Z,3.30
2018-02-10T11:59:07.024Z,3.30
2018-02-10T12:01:33.628Z,3.20
2018-02-10T12:04:00.156Z,3.10
2018-02-10T12:06:30.407Z,3.00
2018-02-10T12:09:01.857Z,2.90
2018-02-10T12:11:29.047Z,2.80
2018-02-10T12:13:55.472Z,2.80
2018-02-10T12:16:22.931Z,2.70
2018-02-10T12:18:50.063Z,2.60
2018-02-10T12:21:16.448Z,2.60
2018-02-10T12:23:43.199Z,2.50
2018-02-10T12:26:09.601Z,2.50
2018-02-10T12:28:36.020Z,2.40
2018-02-10T12:33:35.860Z,2.50
2018-02-10T12:36:03.037Z,2.50
2018-02-10T12:38:29.497Z,2.50
2018-02-10T12:40:55.937Z,2.50
2018-02-10T12:43:23.077Z,2.60
2018-02-10T12:45:49.479Z,2.60
2018-02-10T12:48:27.928Z,2.60
2018-02-10T12:51:05.062Z,2.60
2018-02-10T12:53:35.480Z,2.60
2018-02-10T12:56:01.850Z,2.60
2018-02-10T12:58:28.233Z,2.70
2018-02-10T13:00:54.660Z,2.70
2018-02-10T13:03:21.053Z,2.70
2018-02-10T13:05:47.586Z,2.60
2018-02-10T13:08:13.998Z,2.50
2018-02-10T13:10:40.788Z,2.30
2018-02-10T13:13:07.180Z,2.30
2018-02-10T13:15:37.464Z,2.20
2018-02-10T13:18:04.720Z,2.10
2018-02-10T13:20:31.334Z,2.00
2018-02-10T13:23:02.360Z,2.00
2018-02-10T13:25:28.783Z,2.10
2018-02-10T13:27:59.154Z,2.10
2018-02-10T13:30:25.568Z,2.10
2018-02-10T13:32:54.190Z,2.10
2018-02-10T13:35:21.363Z,2.10
2018-02-10T13:37:47.772Z,2.10
2018-02-10T13:40:14.206Z,2.10
2018-02-10T13:42:41.358Z,2.10
2018-02-10T13:45:08.522Z,2.10
2018-02-10T13:47:34.962Z,2.10
2018-02-10T13:50:02.143Z,2.10
2018-02-10T13:52:28.575Z,2.10
2018-02-10T13:54:54.991Z,2.10
2018-02-10T13:57:21.447Z,2.10
2018-02-10T13:59:47.900Z,2.00
2018-02-10T14:02:14.295Z,2.00
2018-02-10T14:04:41.531Z,2.00
2018-02-10T14:07:08.689Z,2.00
2018-02-10T14:09:35.096Z,2.00
2018-02-10T14:12:02.251Z,1.90
2018-02-10T14:14:29.407Z,1.80
2018-02-10T14:16:55.839Z,1.80
2018-02-10T14:19:22.280Z,1.80
2018-02-10T14:21:52.864Z,1.70
2018-02-10T14:24:19.295Z,1.80
2018-02-10T14:26:45.768Z,1.70
2018-02-10T14:29:12.173Z,1.70
2018-02-10T14:31:38.648Z,1.60
2018-02-10T14:34:06.091Z,1.60
2018-02-10T14:36:33.227Z,1.60
2018-02-10T14:38:59.667Z,1.60
2018-02-10T14:44:23.426Z,1.60
2018-02-10T14:46:54.301Z,1.50
2018-02-10T14:49:21.611Z,1.50
2018-02-10T14:51:48.158Z,1.50
2018-02-10T14:54:14.675Z,1.50
2018-02-10T14:56:41.283Z,1.40
2018-02-10T14:59:07.886Z,1.40
2018-02-10T15:01:35.958Z,1.30
2018-02-10T15:04:02.536Z,1.30
2018-02-10T15:06:29.236Z,1.20
2018-02-10T15:08:56.562Z,1.10
2018-02-10T15:11:27.790Z,1.10
2018-02-10T15:16:51.144Z,1.10
2018-02-10T15:19:17.564Z,1.10
2018-02-10T15:21:44.011Z,1.10
2018-02-10T15:24:10.479Z,1.10
2018-02-10T15:26:37.643Z,1.00
2018-02-10T15:29:04.220Z,1.00
2018-02-10T15:31:42.992Z,1.00
2018-02-10T15:34:21.695Z,1.00
2018-02-10T15:36:48.145Z,0.90
2018-02-10T15:39:15.303Z,0.90
2018-02-10T15:41:41.736Z,0.90
2018-02-10T15:44:08.167Z,0.90
2018-02-10T15:46:35.305Z,0.90
2018-02-10T15:49:02.487Z,0.90
2018-02-10T15:51:30.957Z,0.80
2018-02-10T15:53:57.397Z,0.80
2018-02-10T15:56:26.848Z,0.80
2018-02-10T15:58:53.245Z,0.80
2018-02-10T16:01:19.648Z,0.80
2018-02-10T16:03:50.697Z,0.80
2018-02-10T16:06:17.123Z,0.80
2018-02-10T16:08:44.292Z,0.70
2018-02-10T16:11:10.732Z,0.70
2018-02-10T16:13:37.247Z,0.70
2018-02-10T16:16:03.672Z,0.70
2018-02-10T16:18:30.828Z,0.70
2018-02-10T16:20:58.023Z,0.70
2018-02-10T16:23:24.453Z,0.60
2018-02-10T16:25:50.905Z,0.70
2018-02-10T16:28:18.424Z,0.70
2018-02-10T16:30:44.844Z,0.60
2018-02-10T16:33:11.992Z,0.60
2018-02-10T16:35:39.161Z,0.60
2018-02-10T16:38:05.582Z,0.60
2018-02-10T16:40:32.712Z,0.50
2018-02-10T16:42:59.150Z,0.60
2018-02-10T16:45:26.305Z,0.50
2018-02-10T16:47:53.466Z,0.50
2018-02-10T16:50:20.625Z,0.50
2018-02-10T16:52:47.843Z,0.50
2018-02-10T16:55:14.260Z,0.50
2018-02-10T16:57:40.695Z,0.50
2018-02-10T17:00:07.435Z,0.50
2018-02-10T17:02:33.825Z,0.50
2018-02-10T17:05:00.243Z,0.40
2018-02-10T17:07:27.400Z,0.40
2018-02-10T17:09:53.833Z,0.40
2018-02-10T17:12:21.019Z,0.30
2018-02-10T17:14:47.446Z,0.30
2018-02-10T17:17:13.851Z,0.30
2018-02-10T17:19:41.323Z,0.30
2018-02-10T17:22:07.865Z,0.20
2018-02-10T17:24:34.300Z,0.20
2018-02-10T17:27:01.545Z,0.20
2018-02-10T17:29:36.647Z,0.20
2018-02-10T17:32:04.642Z,0.10
2018-02-10T17:34:31.844Z,0.20
2018-02-10T17:36:58.240Z,0.10
2018-02-10T17:39:24.659Z,0.10
2018-02-10T17:41:52.085Z,0.20
2018-02-10T17:44:18.501Z,0.20
2018-02-10T17:46:44.913Z,0.20
2018-02-10T17:49:11.327Z,0.20
2018-02-10T17:51:38.464Z,0.20
2018-02-10T17:54:05.616Z,0.20
2018-02-10T17:56:32.766Z,0.10
2018-02-10T17:58:59.902Z,0.10
2018-02-10T18:01:26.342Z,0.10
2018-02-10T18:03:52.739Z,0.10
2018-02-10T18:06:19.280Z,0.10
2018-02-10T18:08:56.851Z,0.10
2018-02-10T18:11:36.611Z,0.10
2018-02-10T18:14:03.046Z,0.10
2018-02-10T18:19:26.436Z,0.00
2018-02-10T18:21:52.823Z,0.00
2018-02-10T18:24:19.231Z,0.10
2018-02-10T18:26:45.705Z,0.00
2018-02-10T18:29:31.608Z,0.00
2018-02-10T18:32:14.643Z,0.10
2018-02-10T18:34:41.143Z,0.10
2018-02-10T18:37:08.269Z,0.00
2018-02-10T18:39:34.745Z,0.00
2018-02-10T18:42:01.144Z,0.00
2018-02-10T18:44:27.647Z,0.00
2018-02-10T18:47:07.405Z,0.00
2018-02-10T18:49:33.807Z,0.00
2018-02-10T18:52:00.196Z,0.00
2018-02-10T18:54:27.373Z,0.00
2018-02-10T18:56:53.768Z,0.00
2018-02-10T18:59:21.663Z,0.00
2018-02-10T19:01:52.957Z,0.00
2018-02-10T19:04:19.394Z,0.00
2018-02-10T19:06:45.775Z,0.00
2018-02-10T19:09:12.199Z,0.00
2018-02-10T19:11:39.329Z,0.00
2018-02-10T19:14:05.745Z,-0.10
2018-02-10T19:16:32.214Z,0.00
2018-02-10T19:18:59.383Z,0.00
2018-02-10T19:21:26.531Z,0.00
2018-02-10T19:23:52.995Z,0.00
2018-02-10T19:26:23.202Z,0.00
2018-02-10T19:28:49.600Z,0.00
2018-02-10T19:31:16.024Z,0.00
2018-02-10T19:33:42.413Z,-0.10
2018-02-10T19:36:09.577Z,-0.10
2018-02-10T19:38:37.262Z,-0.10
2018-02-10T19:41:03.705Z,-0.10
2018-02-10T19:43:30.099Z,-0.10
2018-02-10T19:45:56.512Z,-0.10
2018-02-10T19:48:22.926Z,-0.10
2018-02-10T19:50:50.075Z,-0.10
2018-02-10T19:53:17.239Z,-0.10
2018-02-10T19:55:44.389Z,-0.10
2018-02-10T19:58:11.503Z,-0.10
2018-02-10T20:00:39.479Z,-0.10
2018-02-10T20:03:05.879Z,-0.10
2018-02-10T20:05:32.272Z,-0.10
2018-02-10T20:07:59.419Z,-0.10
2018-02-10T20:10:25.836Z,-0.10
2018-02-10T20:12:52.230Z,-0.10
2018-02-10T20:15:22.464Z,-0.10
2018-02-10T20:17:48.867Z,-0.10
2018-02-10T20:20:15.305Z,-0.10
2018-02-10T20:22:41.731Z,-0.10
2018-02-10T20:25:08.860Z,-0.10
2018-02-10T20:27:36.026Z,-0.10
2018-02-10T20:30:02.442Z,-0.10
2018-02-10T20:32:28.828Z,-0.10
2018-02-10T20:34:55.276Z,-0.10
2018-02-10T20:37:21.686Z,-0.10
2018-02-10T20:39:48.120Z,-0.10
2018-02-10T20:42:14.576Z,-0.10
2018-02-10T20:44:41.756Z,-0.10
2018-02-10T20:47:09.659Z,-0.10
2018-02-10T20:49:36.130Z,-0.10
2018-02-10T20:52:02.560Z,-0.10
2018-02-10T20:54:28.947Z,-0.10
2018-02-10T20:56:56.120Z,-0.10
2018-02-10T20:59:22.584Z,-0.10
2018-02-10T21:01:49.071Z,-0.10
2018-02-10T21:04:16.237Z,-0.10
2018-02-10T21:06:42.619Z,-0.20
2018-02-10T21:09:09.055Z,-0.20
2018-02-10T21:11:35.488Z,-0.20
2018-02-10T21:14:01.913Z,-0.20
2018-02-10T21:16:30.327Z,-0.20
2018-02-10T21:18:59.592Z,-0.20
2018-02-10T21:21:26.006Z,-0.30
2018-02-10T21:23:52.407Z,-0.30
2018-02-10T21:26:25.560Z,-0.30
2018-02-10T21:28:52.059Z,-0.30
2018-02-10T21:31:18.661Z,-0.20
2018-02-10T21:33:45.829Z,-0.30
2018-02-10T21:36:25.528Z,-0.30
2018-02-10T21:38:51.944Z,-0.30
2018-02-10T21:41:18.352Z,-0.30
2018-02-10T21:43:44.746Z,-0.30
2018-02-10T21:46:15.864Z,-0.30
2018-02-10T21:48:42.296Z,-0.30
2018-02-10T21:51:08.716Z,-0.30
2018-02-10T21:53:35.147Z,-0.30
2018-02-10T21:56:03.633Z,-0.30
2018-02-10T21:58:30.067Z,-0.30
2018-02-10T22:01:00.564Z,-0.30
2018-02-10T22:03:26.962Z,-0.30
2018-02-10T22:05:53.416Z,-0.30
2018-02-10T22:08:19.808Z,-0.30
2018-02-10T22:10:53.353Z,-0.30
2018-02-10T22:13:19.748Z,-0.30
2018-02-10T22:15:47.672Z,-0.30
2018-02-10T22:18:14.115Z,-0.30
2018-02-10T22:20:47.667Z,-0.30
2018-02-10T22:23:14.851Z,-0.30
2018-02-10T22:25:42.055Z,-0.30
2018-02-10T22:28:25.395Z,-0.30
2018-02-10T22:30:51.803Z,-0.30
2018-02-10T22:33:18.241Z,-0.30
2018-02-10T22:35:49.072Z,-0.30
2018-02-10T22:38:18.509Z,-0.30
2018-02-10T22:40:48.925Z,-0.30
2018-02-10T22:43:17.364Z,-0.20
2018-02-10T22:45:43.793Z,-0.30
2018-02-10T22:48:10.184Z,-0.20
2018-02-10T22:50:36.548Z,-0.20
2018-02-10T22:53:03.701Z,-0.30
2018-02-10T22:55:30.100Z,-0.20
2018-02-10T22:58:03.496Z,-0.20
2018-02-10T23:00:33.811Z,-0.20
2018-02-10T23:03:00.298Z,-0.20
2018-02-10T23:05:26.807Z,-0.20
2018-02-10T23:08:07.335Z,-0.20
2018-02-10T23:10:33.721Z,-0.20
2018-02-10T23:13:00.160Z,-0.20
2018-02-10T23:15:26.680Z,-0.20
2018-02-10T23:17:53.099Z,-0.20
2018-02-10T23:20:19.487Z,-0.20
2018-02-10T23:22:47.936Z,-0.20
2018-02-10T23:25:14.348Z,-0.20
2018-02-10T23:27:51.709Z,-0.20
2018-02-10T23:30:18.120Z,-0.20
2018-02-10T23:32:44.514Z,-0.20
2018-02-10T23:35:19.299Z,-0.20
2018-02-10T23:37:45.763Z,-0.20
2018-02-10T23:40:12.156Z,-0.20
2018-02-10T23:42:38.565Z,-0.20
2018-02-10T23:45:05.022Z,-0.20
2018-02-10T23:47:38.360Z,-0.20
2018-02-10T23:50:04.777Z,-0.20
2018-02-10T23:52:31.178Z,-0.20
2018-02-10T23:54:57.583Z,-0.20
2018-02-10T23:57:24.737Z,-0.20
2018-02-10T23:59:52.385Z,-0.20
